Time;durP1;ratioP1;P1;durP2;ratioP2;P2;SDS_P1;SDS_P2;PMS_P1;PMS_P2;Temp;Humidity;BMP_temperature;BMP_pressure;BME280_temperature;BME280_humidity;BME280_pressure;Samples;Min_cycle;Max_cycle;Signal;HPM_P1;HPM_P2
2022/09/17 00:01:37;;;;;;;8.07;2.78;;;11.10;99.90;;;;;;5073478;28;20204;-64
2022/09/17 00:04:04;;;;;;;4.57;2.40;;;11.20;99.90;;;;;;5073383;28;20228;-64
2022/09/17 00:06:32;;;;;;;4.28;2.53;;;11.20;99.90;;;;;;5073166;28;20922;-64
2022/09/17 00:08:59;;;;;;;5.63;2.70;;;11.20;99.90;;;;;;5073424;28;20205;-63
2022/09/17 00:11:28;;;;;;;5.50;3.85;;;11.20;99.90;;;;;;5073111;28;20453;-64
2022/09/17 00:13:56;;;;;;;8.17;2.93;;;11.20;99.90;;;;;;5072736;28;20243;-64
2022/09/17 00:16:29;;;;;;;14.77;3.30;;;11.20;99.90;;;;;;5073135;28;20478;-64
2022/09/17 00:18:59;;;;;;;8.97;3.40;;;11.20;99.90;;;;;;5073159;28;20208;-64
2022/09/17 00:21:26;;;;;;;7.47;3.10;;;11.20;99.90;;;;;;5073149;28;20447;-64
2022/09/17 00:23:54;;;;;;;8.60;3.28;;;11.20;99.90;;;;;;5072796;28;20255;-63
2022/09/17 00:26:21;;;;;;;12.05;4.00;;;11.20;99.90;;;;;;5075824;28;20254;-64
2022/09/17 00:28:50;;;;;;;8.65;3.70;;;11.20;99.90;;;;;;5077122;28;20212;-64
2022/09/17 00:31:16;;;;;;;11.52;3.50;;;11.20;99.90;;;;;;5076847;28;20208;-64
2022/09/17 00:33:43;;;;;;;9.07;3.45;;;11.20;99.90;;;;;;5076754;28;20715;-64
2022/09/17 00:36:12;;;;;;;6.40;3.28;;;11.20;99.90;;;;;;5077078;28;20231;-63
2022/09/17 00:38:38;;;;;;;9.23;3.20;;;11.20;99.90;;;;;;5076960;28;20210;-63
2022/09/17 00:41:06;;;;;;;11.65;3.38;;;11.20;99.90;;;;;;5076876;28;20439;-64
2022/09/17 00:43:36;;;;;;;14.10;4.00;;;11.20;99.90;;;;;;5076728;28;20217;-64
2022/09/17 00:46:04;;;;;;;12.48;3.13;;;11.20;99.90;;;;;;5077302;28;20442;-64
2022/09/17 00:48:31;;;;;;;15.40;3.67;;;11.20;99.90;;;;;;5076777;28;20201;-64
2022/09/17 00:51:01;;;;;;;11.40;3.88;;;11.10;99.90;;;;;;5076910;28;20438;-63
2022/09/17 00:53:30;;;;;;;9.13;3.70;;;11.10;99.90;;;;;;5076855;28;20221;-64
2022/09/17 00:56:03;;;;;;;8.75;3.08;;;11.10;99.90;;;;;;5076420;28;20470;-64
2022/09/17 00:58:31;;;;;;;14.30;3.70;;;11.10;99.90;;;;;;5076725;28;20197;-63
2022/09/17 01:00:58;;;;;;;15.32;3.38;;;11.10;99.90;;;;;;5076435;28;20203;-63
2022/09/17 01:03:25;;;;;;;6.57;3.05;;;11.10;99.90;;;;;;5076003;28;20217;-63
2022/09/17 01:06:05;;;;;;;11.35;2.97;;;11.10;99.90;;;;;;5076124;28;20668;-63
2022/09/17 01:08:42;;;;;;;8.03;2.70;;;11.10;99.90;;;;;;5076446;28;20200;-63
2022/09/17 01:11:30;;;;;;;4.10;1.92;;;11.10;99.90;;;;;;5076312;28;20921;-63
2022/09/17 01:14:14;;;;;;;13.00;2.93;;;11.10;99.90;;;;;;5076369;28;20228;-63
2022/09/17 01:16:48;;;;;;;6.07;2.33;;;11.10;99.90;;;;;;5076464;28;20498;-63
2022/09/17 01:19:46;;;;;;;14.03;2.70;;;11.10;99.90;;;;;;5076822;28;20195;-63
2022/09/17 01:22:22;;;;;;;7.60;2.60;;;11.10;99.90;;;;;;5068755;28;20954;-63
2022/09/17 01:25:08;;;;;;;7.83;2.60;;;11.00;99.90;;;;;;5077073;28;20848;-63
2022/09/17 01:28:07;;;;;;;8.50;2.43;;;11.10;99.90;;;;;;5077416;28;20428;-64
2022/09/17 01:31:02;;;;;;;10.07;2.97;;;11.10;99.90;;;;;;5076779;28;20443;-63
2022/09/17 01:33:38;;;;;;;10.97;3.20;;;11.10;99.90;;;;;;5076261;28;20462;-64
2022/09/17 01:36:16;;;;;;;8.38;2.67;;;11.10;99.90;;;;;;5075714;28;20459;-62
2022/09/17 01:38:49;;;;;;;10.88;4.80;;;11.00;99.90;;;;;;5075473;28;20637;-64
2022/09/17 01:41:32;;;;;;;10.32;2.42;;;11.00;99.90;;;;;;5076187;28;20189;-63
2022/09/17 01:44:06;;;;;;;8.65;2.50;;;11.00;99.90;;;;;;5075991;28;20221;-63
2022/09/17 01:46:38;;;;;;;5.95;2.20;;;10.90;99.90;;;;;;5075494;28;20182;-64
2022/09/17 01:49:07;;;;;;;6.53;2.47;;;10.90;99.90;;;;;;5075667;28;20185;-64
2022/09/17 01:51:37;;;;;;;10.27;2.63;;;10.90;99.90;;;;;;5075587;28;20285;-64
2022/09/17 01:54:08;;;;;;;10.00;2.50;;;10.90;99.90;;;;;;5076122;28;20537;-65
2022/09/17 01:56:38;;;;;;;8.38;3.15;;;11.00;99.90;;;;;;5075599;28;20551;-65
2022/09/17 01:59:11;;;;;;;10.20;3.20;;;11.00;99.90;;;;;;5075336;28;20205;-65
2022/09/17 02:01:43;;;;;;;8.65;2.67;;;11.00;99.90;;;;;;5075421;28;20196;-64
2022/09/17 02:04:15;;;;;;;5.80;1.93;;;10.90;99.90;;;;;;5075780;28;20217;-65
2022/09/17 02:06:47;;;;;;;4.20;1.95;;;10.90;99.90;;;;;;5075312;28;20420;-65
2022/09/17 02:09:17;;;;;;;5.82;2.05;;;10.90;99.90;;;;;;5075278;28;20189;-65
2022/09/17 02:11:48;;;;;;;8.52;1.83;;;10.90;99.90;;;;;;5074878;28;20667;-65
2022/09/17 02:14:20;;;;;;;7.80;2.80;;;10.90;99.90;;;;;;5074982;28;20221;-64
2022/09/17 02:16:52;;;;;;;6.63;2.00;;;10.90;99.90;;;;;;5074969;28;20209;-65
2022/09/17 02:19:23;;;;;;;7.88;3.22;;;10.90;99.90;;;;;;5075016;28;20239;-65
2022/09/17 02:21:56;;;;;;;6.70;2.58;;;10.90;99.90;;;;;;5074886;28;20194;-65
2022/09/17 02:24:25;;;;;;;7.93;2.60;;;10.90;99.90;;;;;;5074344;28;20747;-65
2022/09/17 02:26:58;;;;;;;9.40;2.70;;;10.90;99.90;;;;;;5074681;28;20193;-65
2022/09/17 02:29:30;;;;;;;10.40;2.42;;;10.90;99.90;;;;;;5074464;28;20637;-65
2022/09/17 02:31:59;;;;;;;7.18;1.98;;;10.90;99.90;;;;;;5074539;28;20188;-65
2022/09/17 02:34:28;;;;;;;8.80;2.28;;;11.00;99.90;;;;;;5074537;28;20585;-65
2022/09/17 02:36:55;;;;;;;13.10;2.80;;;11.00;99.90;;;;;;5074535;28;20235;-65
2022/09/17 02:39:22;;;;;;;9.65;2.95;;;11.00;99.90;;;;;;5074696;28;20201;-64
2022/09/17 02:41:56;;;;;;;10.65;2.55;;;11.00;99.90;;;;;;5074905;28;20197;-65
2022/09/17 02:44:32;;;;;;;9.83;2.37;;;10.90;99.90;;;;;;5074597;28;20648;-64
2022/09/17 02:47:21;;;;;;;7.55;2.60;;;10.90;99.90;;;;;;5074399;28;20918;-64
2022/09/17 02:50:15;;;;;;;12.25;2.38;;;10.90;99.90;;;;;;5069601;28;20217;-65
2022/09/17 02:52:55;;;;;;;7.32;2.13;;;10.90;99.90;;;;;;5074495;28;20185;-64
2022/09/17 02:55:30;;;;;;;8.23;2.60;;;10.90;99.90;;;;;;5074330;28;20209;-65
2022/09/17 02:58:05;;;;;;;18.20;3.10;;;10.90;99.90;;;;;;5074445;28;20192;-64
2022/09/17 03:00:32;;;;;;;10.75;3.10;;;10.90;99.90;;;;;;5074439;28;20185;-65
2022/09/17 03:03:05;;;;;;;6.63;2.63;;;10.90;99.90;;;;;;5074104;28;20220;-65
2022/09/17 03:05:34;;;;;;;14.73;3.30;;;10.80;99.90;;;;;;5074053;28;20790;-65
2022/09/17 03:08:01;;;;;;;8.18;2.00;;;10.80;99.90;;;;;;5074847;28;20216;-65
2022/09/17 03:10:32;;;;;;;9.18;2.15;;;10.80;99.90;;;;;;5074227;28;20203;-64
2022/09/17 03:12:59;;;;;;;11.45;2.90;;;10.70;99.90;;;;;;5073894;28;20221;-65
2022/09/17 03:15:25;;;;;;;8.02;2.10;;;10.70;99.90;;;;;;5073700;28;20582;-65
2022/09/17 03:17:52;;;;;;;9.20;2.55;;;10.70;99.90;;;;;;5073956;28;20201;-65
2022/09/17 03:20:20;;;;;;;15.02;2.33;;;10.70;99.90;;;;;;5073482;28;20209;-65
2022/09/17 03:22:47;;;;;;;9.15;2.58;;;10.60;99.90;;;;;;5073552;28;20224;-65
2022/09/17 03:25:14;;;;;;;11.80;2.92;;;10.50;99.90;;;;;;5074873;28;20668;-63
2022/09/17 03:27:41;;;;;;;9.32;2.00;;;10.50;99.90;;;;;;5073949;28;20227;-63
2022/09/17 03:30:08;;;;;;;12.07;2.70;;;10.40;99.90;;;;;;5073447;28;20687;-63
2022/09/17 03:32:35;;;;;;;9.65;2.40;;;10.40;99.90;;;;;;5073412;28;20664;-63
2022/09/17 03:35:01;;;;;;;7.57;2.15;;;10.40;99.90;;;;;;5073425;28;20665;-63
2022/09/17 03:37:30;;;;;;;7.80;2.20;;;10.40;99.90;;;;;;5073426;28;20220;-64
2022/09/17 03:39:56;;;;;;;13.20;2.30;;;10.30;99.90;;;;;;5073429;28;20200;-63
2022/09/17 03:42:23;;;;;;;9.30;2.55;;;10.30;99.90;;;;;;5073414;28;20201;-63
2022/09/17 03:44:50;;;;;;;13.30;2.63;;;10.30;99.90;;;;;;5073297;28;20236;-64
2022/09/17 03:47:17;;;;;;;7.50;2.25;;;10.20;99.90;;;;;;5073258;28;20201;-63
2022/09/17 03:49:43;;;;;;;13.20;3.17;;;10.30;99.90;;;;;;5073368;28;20200;-64
2022/09/17 03:52:10;;;;;;;12.50;2.45;;;10.20;99.90;;;;;;5073040;28;20209;-63
2022/09/17 03:54:38;;;;;;;12.25;3.42;;;10.30;99.90;;;;;;5073247;28;20221;-63
2022/09/17 03:57:05;;;;;;;14.98;3.08;;;10.30;99.90;;;;;;5073261;28;20221;-63
2022/09/17 03:59:32;;;;;;;13.18;2.65;;;10.20;99.90;;;;;;5073104;28;20205;-63
2022/09/17 04:01:58;;;;;;;7.82;1.92;;;10.20;99.90;;;;;;5072489;28;20297;-63
2022/09/17 04:04:25;;;;;;;7.55;1.92;;;10.20;99.90;;;;;;5073315;28;20225;-64
2022/09/17 04:10:17;;;;;;;7.15;2.53;;;10.10;99.90;;;;;;5091421;28;20590;-64
2022/09/17 04:12:44;;;;;;;7.70;2.15;;;10.10;99.90;;;;;;5090983;28;20251;-64
2022/09/17 04:15:11;;;;;;;11.50;2.60;;;10.10;99.90;;;;;;5091163;28;20215;-63
2022/09/17 04:17:38;;;;;;;11.25;2.55;;;10.10;99.90;;;;;;5090842;28;20286;-63
2022/09/17 04:20:05;;;;;;;12.35;4.15;;;10.20;99.90;;;;;;5090892;28;20207;-63
2022/09/17 04:22:32;;;;;;;8.38;2.65;;;10.10;99.90;;;;;;5090738;28;20203;-63
2022/09/17 04:24:58;;;;;;;15.38;2.13;;;10.20;99.90;;;;;;5090727;28;20227;-63
2022/09/17 04:27:27;;;;;;;10.90;2.50;;;10.10;99.90;;;;;;5090716;28;20204;-63
2022/09/17 04:29:53;;;;;;;11.10;2.50;;;10.20;99.90;;;;;;5090200;28;20692;-62
2022/09/17 04:32:20;;;;;;;20.48;3.60;;;10.20;99.90;;;;;;5090384;28;20205;-63
2022/09/17 04:34:47;;;;;;;8.23;2.20;;;10.20;99.90;;;;;;5090302;28;20228;-63
2022/09/17 04:37:14;;;;;;;6.57;2.70;;;10.20;99.90;;;;;;5090505;28;20282;-64
2022/09/17 04:39:40;;;;;;;8.85;2.35;;;10.30;99.90;;;;;;5090453;28;20660;-64
2022/09/17 04:42:08;;;;;;;11.88;2.30;;;10.30;99.90;;;;;;5090350;28;20200;-62
2022/09/17 04:44:36;;;;;;;19.23;3.22;;;10.30;99.90;;;;;;5090007;28;20220;-62
2022/09/17 04:47:04;;;;;;;11.40;2.33;;;10.30;99.90;;;;;;5089945;28;20204;-63
2022/09/17 04:49:31;;;;;;;6.85;2.28;;;10.30;99.90;;;;;;5090073;28;20216;-63
2022/09/17 04:51:58;;;;;;;6.82;2.08;;;10.30;99.90;;;;;;5090079;28;20209;-63
2022/09/17 04:54:25;;;;;;;7.10;2.35;;;10.30;99.90;;;;;;5089647;28;20609;-63
2022/09/17 04:56:51;;;;;;;12.60;2.53;;;10.30;99.90;;;;;;5089501;28;20197;-62
2022/09/17 04:59:18;;;;;;;11.52;2.47;;;10.30;99.90;;;;;;5089789;28;20201;-62
2022/09/17 05:01:46;;;;;;;12.40;2.38;;;10.30;99.90;;;;;;5089928;28;20215;-64
2022/09/17 05:04:13;;;;;;;6.35;2.05;;;10.40;99.90;;;;;;5090026;28;20231;-63
2022/09/17 05:06:40;;;;;;;12.07;2.50;;;10.40;99.90;;;;;;5089614;28;20686;-63
2022/09/17 05:09:07;;;;;;;13.60;3.53;;;10.40;99.90;;;;;;5089388;28;20732;-64
2022/09/17 05:11:34;;;;;;;12.25;2.63;;;10.30;99.90;;;;;;5090324;28;20231;-64
2022/09/17 05:14:01;;;;;;;11.45;2.75;;;10.30;99.90;;;;;;5089628;28;20564;-63
2022/09/17 05:16:27;;;;;;;11.43;3.95;;;10.30;99.90;;;;;;5089657;28;20204;-63
2022/09/17 05:18:56;;;;;;;13.00;2.33;;;10.30;99.90;;;;;;5089632;28;20204;-64
2022/09/17 05:21:23;;;;;;;14.45;2.70;;;10.30;99.90;;;;;;5077117;28;20201;-62
2022/09/17 05:23:50;;;;;;;10.23;2.60;;;10.30;99.90;;;;;;5075775;28;20217;-62
2022/09/17 05:26:17;;;;;;;13.68;3.38;;;10.30;99.90;;;;;;5075812;28;20197;-63
2022/09/17 05:28:43;;;;;;;25.92;3.50;;;10.30;99.90;;;;;;5075657;28;20224;-63
2022/09/17 05:31:10;;;;;;;9.20;2.67;;;10.30;99.90;;;;;;5075908;28;20201;-63
2022/09/17 05:33:37;;;;;;;11.23;2.28;;;10.40;99.90;;;;;;5075414;28;20221;-63
2022/09/17 05:36:06;;;;;;;14.52;3.30;;;10.40;99.90;;;;;;5070004;28;20201;-65
2022/09/17 05:38:33;;;;;;;8.93;2.47;;;10.40;99.90;;;;;;5058787;28;20185;-64
2022/09/17 05:41:05;;;;;;;11.30;2.63;;;10.40;99.90;;;;;;5056662;28;20209;-63
2022/09/17 05:43:32;;;;;;;8.40;2.15;;;10.40;99.90;;;;;;5056740;28;20263;-63
2022/09/17 05:46:01;;;;;;;10.45;2.38;;;10.40;99.90;;;;;;5055657;28;20205;-63
2022/09/17 05:48:28;;;;;;;9.57;2.92;;;10.50;99.90;;;;;;5066754;28;20196;-63
2022/09/17 05:50:55;;;;;;;9.57;2.03;;;10.50;99.90;;;;;;5064818;28;20197;-63
2022/09/17 05:53:23;;;;;;;9.75;2.15;;;10.50;99.90;;;;;;5057243;28;20222;-64
2022/09/17 05:55:50;;;;;;;9.88;2.00;;;10.50;99.90;;;;;;5056082;28;20197;-64
2022/09/17 05:58:19;;;;;;;8.10;2.15;;;10.50;99.90;;;;;;5059440;28;20197;-64
2022/09/17 06:00:47;;;;;;;11.43;2.10;;;10.50;99.90;;;;;;5065968;28;20201;-64
2022/09/17 06:03:15;;;;;;;5.88;2.58;;;10.60;99.90;;;;;;5070540;28;20271;-64
2022/09/17 06:05:42;;;;;;;14.20;3.05;;;10.60;99.90;;;;;;5056414;28;20197;-64
2022/09/17 06:08:09;;;;;;;12.20;3.10;;;10.60;99.90;;;;;;5072867;28;20214;-64
2022/09/17 06:10:39;;;;;;;9.82;2.25;;;10.60;99.90;;;;;;5075148;28;20241;-63
2022/09/17 06:13:06;;;;;;;11.18;2.28;;;10.60;99.90;;;;;;5077524;28;20217;-64
2022/09/17 06:15:32;;;;;;;7.55;2.85;;;10.60;99.90;;;;;;5075632;28;20204;-64
2022/09/17 06:17:59;;;;;;;9.90;2.30;;;10.70;99.90;;;;;;5075187;28;20199;-64
2022/09/17 06:20:26;;;;;;;16.17;3.35;;;10.60;99.90;;;;;;5072840;28;20193;-63
2022/09/17 06:22:57;;;;;;;4.78;1.90;;;10.60;99.90;;;;;;5064640;28;20217;-63
2022/09/17 06:25:23;;;;;;;5.22;1.60;;;10.60;99.90;;;;;;5055070;28;20209;-63
2022/09/17 06:27:52;;;;;;;8.82;1.80;;;10.60;99.90;;;;;;5062291;28;20197;-63
2022/09/17 06:30:19;;;;;;;11.35;2.80;;;10.60;99.90;;;;;;5075007;28;20232;-64
2022/09/17 06:32:45;;;;;;;13.75;2.55;;;10.50;99.90;;;;;;5064201;28;20197;-63
2022/09/17 06:35:12;;;;;;;13.65;3.05;;;10.50;99.90;;;;;;5054893;28;20205;-64
2022/09/17 06:37:39;;;;;;;12.88;2.80;;;10.40;99.90;;;;;;5054892;28;20292;-63
2022/09/17 06:40:08;;;;;;;5.15;1.90;;;10.40;99.90;;;;;;5054787;28;20240;-64
2022/09/17 06:42:34;;;;;;;6.78;1.90;;;10.40;99.90;;;;;;5054547;28;20194;-63
2022/09/17 06:45:03;;;;;;;5.18;1.92;;;10.40;99.90;;;;;;5054292;28;20205;-64
2022/09/17 06:47:29;;;;;;;8.27;1.85;;;10.50;99.90;;;;;;5054368;28;20225;-62
2022/09/17 06:49:58;;;;;;;8.98;2.10;;;10.50;99.90;;;;;;5054240;28;20563;-64
2022/09/17 06:52:25;;;;;;;11.68;2.42;;;10.60;99.90;;;;;;5053417;28;20658;-62
2022/09/17 06:54:52;;;;;;;8.52;2.00;;;10.60;99.90;;;;;;5053967;28;20708;-62
2022/09/17 06:57:19;;;;;;;10.90;2.40;;;10.80;99.90;;;;;;5053939;28;20210;-63
2022/09/17 06:59:46;;;;;;;7.82;1.98;;;10.90;99.90;;;;;;5054190;28;20202;-64
2022/09/17 07:02:14;;;;;;;7.63;3.10;;;11.00;99.90;;;;;;5054145;28;20205;-63
2022/09/17 07:04:41;;;;;;;6.93;2.13;;;11.10;99.90;;;;;;5054188;28;20563;-63
2022/09/17 07:07:08;;;;;;;7.20;2.13;;;11.20;99.90;;;;;;5053523;28;20190;-64
2022/09/17 07:09:35;;;;;;;8.03;2.10;;;11.20;99.90;;;;;;5053185;28;20484;-64
2022/09/17 07:12:06;;;;;;;8.80;2.30;;;11.30;99.90;;;;;;5053572;28;20448;-64
2022/09/17 07:14:33;;;;;;;5.87;1.90;;;11.30;99.90;;;;;;5053543;28;20460;-63
2022/09/17 07:16:59;;;;;;;6.43;2.10;;;11.30;99.90;;;;;;5053185;28;20947;-63
2022/09/17 07:19:27;;;;;;;6.40;2.40;;;11.20;99.90;;;;;;5053593;28;20448;-64
2022/09/17 07:21:54;;;;;;;11.67;2.30;;;11.10;99.90;;;;;;5053414;28;20210;-64
2022/09/17 07:24:21;;;;;;;16.97;3.27;;;11.10;99.90;;;;;;5053234;28;20460;-63
2022/09/17 07:26:49;;;;;;;6.63;1.63;;;11.20;99.90;;;;;;5052874;28;20455;-64
2022/09/17 07:29:16;;;;;;;10.60;3.07;;;11.30;99.90;;;;;;5053488;28;20483;-63
2022/09/17 07:31:43;;;;;;;9.63;2.13;;;11.40;99.90;;;;;;5052780;28;20451;-63
2022/09/17 07:34:10;;;;;;;4.57;1.60;;;11.40;99.90;;;;;;5053240;28;20471;-62
2022/09/17 07:36:38;;;;;;;11.60;2.80;;;11.50;99.90;;;;;;5053376;28;20444;-63
2022/09/17 07:39:05;;;;;;;13.27;2.67;;;11.50;99.90;;;;;;5057575;28;20484;-63
2022/09/17 07:41:33;;;;;;;11.33;3.40;;;11.60;99.90;;;;;;5055306;28;20467;-64
2022/09/17 07:44:01;;;;;;;11.33;2.30;;;11.60;99.90;;;;;;5053150;28;20465;-64
2022/09/17 07:46:28;;;;;;;12.30;2.63;;;11.60;99.90;;;;;;5053074;28;20448;-63
2022/09/17 07:48:55;;;;;;;15.70;3.73;;;11.60;99.90;;;;;;5053037;28;20452;-63
2022/09/17 07:51:23;;;;;;;6.70;2.40;;;11.60;99.90;;;;;;5052880;28;20444;-62
2022/09/17 07:53:52;;;;;;;9.43;2.33;;;11.70;99.90;;;;;;5063312;28;20466;-63
2022/09/17 07:56:19;;;;;;;18.43;3.20;;;11.80;99.90;;;;;;5072890;28;20447;-63
2022/09/17 07:58:46;;;;;;;9.67;1.53;;;11.80;99.90;;;;;;5069458;28;20444;-62
2022/09/17 08:01:15;;;;;;;10.33;2.63;;;11.90;99.90;;;;;;5052838;28;20959;-64
2022/09/17 08:03:43;;;;;;;7.90;2.20;;;12.00;99.90;;;;;;5053443;28;20468;-64
2022/09/17 08:06:12;;;;;;;7.70;2.00;;;12.10;99.90;;;;;;5062797;28;20444;-64
2022/09/17 08:08:40;;;;;;;7.07;2.20;;;12.20;99.90;;;;;;5073359;28;20466;-63
2022/09/17 08:11:10;;;;;;;11.13;2.23;;;12.20;99.90;;;;;;5060491;28;20486;-63
2022/09/17 08:13:37;;;;;;;20.03;3.53;;;12.20;99.90;;;;;;5070393;28;20459;-63
2022/09/17 08:16:06;;;;;;;6.73;2.10;;;12.20;99.90;;;;;;5078559;28;20449;-64
2022/09/17 08:18:34;;;;;;;10.00;1.73;;;12.20;99.90;;;;;;5072862;28;20451;-64
2022/09/17 08:21:03;;;;;;;3.63;1.53;;;12.20;99.90;;;;;;5063335;28;20441;-64
2022/09/17 08:23:31;;;;;;;13.07;2.93;;;12.30;99.90;;;;;;5076963;28;21057;-64
2022/09/17 08:26:00;;;;;;;6.40;2.23;;;12.40;99.90;;;;;;5086402;28;20447;-63
2022/09/17 08:28:30;;;;;;;7.90;1.77;;;12.50;99.90;;;;;;5070107;28;20506;-64
2022/09/17 08:31:01;;;;;;;4.77;1.53;;;12.60;99.80;;;;;;5073826;28;20470;-63
2022/09/17 08:33:32;;;;;;;6.83;1.67;;;12.70;99.20;;;;;;5064508;28;20472;-64
2022/09/17 08:35:59;;;;;;;8.67;1.80;;;12.70;99.00;;;;;;5054742;28;20502;-64
2022/09/17 08:38:26;;;;;;;7.30;2.07;;;12.80;98.50;;;;;;5053533;28;20446;-63
2022/09/17 08:41:06;;;;;;;6.63;1.60;;;12.90;97.80;;;;;;5053212;28;20446;-63
2022/09/17 08:43:41;;;;;;;4.70;2.00;;;13.00;97.10;;;;;;5052332;28;20995;-63
2022/09/17 08:46:09;;;;;;;10.50;2.90;;;13.00;96.40;;;;;;5070280;28;20443;-63
2022/09/17 08:48:41;;;;;;;4.77;1.73;;;13.10;96.00;;;;;;5054839;28;20526;-62
2022/09/17 08:51:17;;;;;;;10.93;1.50;;;13.20;95.20;;;;;;5054544;28;20468;-61
2022/09/17 08:53:57;;;;;;;4.50;1.77;;;13.30;95.40;;;;;;5055534;28;20471;-63
2022/09/17 08:56:26;;;;;;;5.70;1.70;;;13.40;94.40;;;;;;5066064;28;20432;-63
2022/09/17 08:59:04;;;;;;;8.90;2.30;;;13.50;93.20;;;;;;5066533;28;20462;-64
2022/09/17 09:01:39;;;;;;;6.43;2.53;;;13.60;93.10;;;;;;5062209;28;20432;-62
2022/09/17 09:04:31;;;;;;;10.17;2.13;;;13.80;92.70;;;;;;5062904;28;20467;-64
2022/09/17 09:07:03;;;;;;;8.30;2.33;;;13.90;92.10;;;;;;5061197;28;20871;-64
2022/09/17 09:09:35;;;;;;;7.33;1.73;;;14.10;91.20;;;;;;5058338;28;20563;-63
2022/09/17 09:12:06;;;;;;;9.03;2.47;;;14.10;90.40;;;;;;5059842;28;20435;-63
2022/09/17 09:14:40;;;;;;;5.43;1.90;;;14.00;90.00;;;;;;5057957;28;20474;-63
2022/09/17 09:17:09;;;;;;;8.30;2.60;;;13.90;90.40;;;;;;5056678;28;20428;-63
2022/09/17 09:19:43;;;;;;;10.50;2.23;;;14.00;90.10;;;;;;5056774;28;20443;-64
2022/09/17 09:22:29;;;;;;;8.40;1.90;;;14.00;87.40;;;;;;5056503;28;20458;-64
2022/09/17 09:25:05;;;;;;;8.33;1.87;;;13.90;86.70;;;;;;5077462;28;20453;-63
2022/09/17 09:27:37;;;;;;;11.83;2.30;;;13.90;86.00;;;;;;5068137;28;20565;-64
2022/09/17 09:30:09;;;;;;;11.17;1.67;;;14.10;86.10;;;;;;5056586;28;20464;-63
2022/09/17 09:32:55;;;;;;;6.20;2.23;;;14.20;84.80;;;;;;5069032;28;20468;-62
2022/09/17 09:35:26;;;;;;;10.00;1.67;;;14.40;83.10;;;;;;5082335;28;20455;-63
2022/09/17 09:37:59;;;;;;;7.43;1.63;;;14.50;80.90;;;;;;5077809;28;20431;-64
2022/09/17 09:40:36;;;;;;;8.47;2.40;;;14.60;80.20;;;;;;5056999;28;20436;-64
2022/09/17 09:43:11;;;;;;;8.90;1.83;;;14.60;78.50;;;;;;5062842;28;20473;-63
2022/09/17 09:45:52;;;;;;;4.73;1.47;;;14.70;77.20;;;;;;5071029;28;20447;-63
2022/09/17 09:48:28;;;;;;;6.97;2.57;;;14.70;76.20;;;;;;5065077;28;20446;-62
2022/09/17 09:51:13;;;;;;;6.23;1.97;;;14.70;76.50;;;;;;5075804;28;20467;-62
2022/09/17 09:53:51;;;;;;;9.90;2.73;;;14.90;76.70;;;;;;5059977;28;20475;-62
2022/09/17 09:56:35;;;;;;;3.50;1.50;;;15.00;74.40;;;;;;5069072;28;20823;-64
2022/09/17 09:59:01;;;;;;;5.43;1.67;;;15.10;73.60;;;;;;5072197;28;20443;-62
2022/09/17 10:01:31;;;;;;;4.40;2.13;;;15.10;72.80;;;;;;5075034;28;20470;-64
2022/09/17 10:03:57;;;;;;;8.70;1.67;;;15.20;71.10;;;;;;5076900;28;20501;-64
2022/09/17 10:06:29;;;;;;;6.40;1.67;;;15.20;70.50;;;;;;5068840;28;20446;-64
2022/09/17 10:09:15;;;;;;;5.43;1.57;;;15.10;69.60;;;;;;5071786;28;20475;-65
2022/09/17 10:11:43;;;;;;;10.93;2.87;;;15.00;69.10;;;;;;5062129;28;20560;-65
2022/09/17 10:14:24;;;;;;;8.20;2.00;;;14.80;67.30;;;;;;5069844;28;20955;-62
2022/09/17 10:17:12;;;;;;;9.43;1.73;;;14.70;67.30;;;;;;5074471;28;20431;-63
2022/09/17 10:19:38;;;;;;;7.07;1.93;;;14.80;66.50;;;;;;5074730;28;20765;-63
2022/09/17 10:22:28;;;;;;;6.80;1.90;;;14.90;64.60;;;;;;5074692;28;20927;-62
2022/09/17 10:24:57;;;;;;;10.03;2.10;;;14.80;63.60;;;;;;5071234;28;20444;-62
2022/09/17 10:27:25;;;;;;;5.40;2.00;;;14.80;63.40;;;;;;5054098;28;20987;-62
2022/09/17 10:30:01;;;;;;;10.03;1.53;;;14.80;62.20;;;;;;5053987;28;20939;-63
2022/09/17 10:32:29;;;;;;;7.30;1.87;;;14.90;62.70;;;;;;5054898;28;20428;-62
2022/09/17 10:35:03;;;;;;;4.63;1.87;;;15.10;61.90;;;;;;5064406;28;20481;-65
2022/09/17 10:37:41;;;;;;;4.83;1.60;;;15.30;60.70;;;;;;5067756;28;21743;-65
2022/09/17 10:40:27;;;;;;;7.30;1.57;;;15.30;59.90;;;;;;5057363;28;20842;-63
2022/09/17 10:43:21;;;;;;;4.50;1.27;;;15.40;59.80;;;;;;5069985;28;20466;-65
2022/09/17 10:45:57;;;;;;;4.63;1.50;;;15.70;59.50;;;;;;5075061;28;20442;-63
2022/09/17 10:48:29;;;;;;;12.50;1.90;;;15.90;57.40;;;;;;5074516;28;20902;-65
2022/09/17 10:50:57;;;;;;;5.47;1.87;;;16.00;56.10;;;;;;5074113;28;20468;-65
2022/09/17 10:53:25;;;;;;;7.33;1.60;;;16.10;55.40;;;;;;5073876;28;20471;-64
2022/09/17 10:55:58;;;;;;;8.63;1.80;;;16.10;54.60;;;;;;5074431;28;20470;-64
2022/09/17 10:58:38;;;;;;;6.77;2.30;;;15.90;53.50;;;;;;5074105;28;20439;-63
2022/09/17 11:01:16;;;;;;;3.60;1.40;;;15.90;53.10;;;;;;5072467;28;20431;-65
2022/09/17 11:04:25;;;;;;;8.47;1.60;;;15.90;53.10;;;;;;5073563;28;20960;-65
2022/09/17 11:07:20;;;;;;;4.10;1.40;;;16.10;53.40;;;;;;5053747;28;20451;-64
2022/09/17 11:09:54;;;;;;;8.20;1.67;;;16.40;53.40;;;;;;5053466;28;20462;-63
2022/09/17 11:12:35;;;;;;;8.20;1.60;;;16.30;53.40;;;;;;5053414;28;20476;-62
2022/09/17 11:15:10;;;;;;;6.77;1.90;;;16.20;54.00;;;;;;5053223;28;20429;-64
2022/09/17 11:17:54;;;;;;;6.07;1.33;;;16.10;54.80;;;;;;5053176;28;20904;-64
2022/09/17 11:20:36;;;;;;;2.00;0.87;;;15.90;55.30;;;;;;5057362;28;20478;-65
2022/09/17 11:23:20;;;;;;;6.43;2.00;;;16.00;55.60;;;;;;5057094;28;20479;-64
2022/09/17 11:25:53;;;;;;;5.90;1.77;;;16.30;55.30;;;;;;5053552;28;20799;-64
2022/09/17 11:28:39;;;;;;;5.83;1.60;;;16.40;54.40;;;;;;5053737;28;20503;-63
2022/09/17 11:31:20;;;;;;;2.73;1.40;;;16.30;53.60;;;;;;5053270;28;20809;-61
2022/09/17 11:34:11;;;;;;;9.73;1.60;;;16.10;53.70;;;;;;5053066;28;20835;-63
2022/09/17 11:36:48;;;;;;;3.53;1.17;;;15.80;53.40;;;;;;5053553;28;20543;-63
2022/09/17 11:39:18;;;;;;;6.00;1.40;;;15.60;53.00;;;;;;5053229;28;20440;-64
2022/09/17 11:41:48;;;;;;;2.83;1.40;;;15.50;53.80;;;;;;5052915;28;20444;-64
2022/09/17 11:44:20;;;;;;;9.97;1.90;;;15.40;53.20;;;;;;5053224;28;20562;-64
2022/09/17 11:46:51;;;;;;;7.03;1.83;;;15.40;53.40;;;;;;5053488;28;20425;-64
2022/09/17 11:49:28;;;;;;;5.80;1.90;;;15.50;53.70;;;;;;5053710;28;20478;-65
2022/09/17 11:52:00;;;;;;;9.73;1.73;;;15.40;53.80;;;;;;5053258;28;20468;-64
2022/09/17 11:54:32;;;;;;;6.33;1.83;;;15.40;54.70;;;;;;5052934;28;20483;-64
2022/09/17 11:57:06;;;;;;;4.70;1.43;;;15.40;54.60;;;;;;5053283;28;20424;-63
2022/09/17 11:59:38;;;;;;;5.70;1.30;;;15.40;55.00;;;;;;5053873;28;20428;-65
2022/09/17 12:02:17;;;;;;;4.90;1.43;;;15.40;55.90;;;;;;5053160;28;20428;-65
2022/09/17 12:04:48;;;;;;;5.50;1.40;;;15.50;55.50;;;;;;5065488;28;20463;-63
2022/09/17 12:07:29;;;;;;;6.23;1.37;;;15.60;55.40;;;;;;5055657;28;20434;-65
2022/09/17 12:10:02;;;;;;;4.33;1.30;;;15.70;55.10;;;;;;5055345;28;20460;-64
2022/09/17 12:12:30;;;;;;;5.10;1.33;;;15.80;54.70;;;;;;5054757;28;20838;-64
2022/09/17 12:15:02;;;;;;;12.33;1.57;;;15.80;54.70;;;;;;5053630;28;20448;-64
2022/09/17 12:17:37;;;;;;;2.90;1.27;;;15.70;55.00;;;;;;5053779;28;20435;-65
2022/09/17 12:20:08;;;;;;;3.73;1.10;;;15.60;55.50;;;;;;5055576;28;20440;-64
2022/09/17 12:22:39;;;;;;;7.27;2.13;;;15.30;56.00;;;;;;5053697;28;20891;-66
2022/09/17 12:25:12;;;;;;;3.70;2.10;;;15.10;57.40;;;;;;5055530;28;20432;-65
2022/09/17 12:27:48;;;;;;;4.50;1.60;;;14.80;58.50;;;;;;5054945;28;20448;-64
2022/09/17 12:30:19;;;;;;;2.87;1.10;;;14.40;61.20;;;;;;5056998;28;20432;-65
2022/09/17 12:33:06;;;;;;;4.33;1.23;;;14.00;65.50;;;;;;5059669;28;20464;-64
2022/09/17 12:35:58;;;;;;;3.50;1.30;;;13.50;70.40;;;;;;5060002;28;20990;-66
2022/09/17 12:38:48;;;;;;;8.07;2.90;;;12.90;77.20;;;;;;5055630;28;20447;-64
2022/09/17 12:41:19;;;;;;;3.40;1.27;;;12.70;84.00;;;;;;5058811;28;20423;-66
2022/09/17 12:44:02;;;;;;;4.90;2.43;;;12.60;90.20;;;;;;5058553;28;20822;-65
2022/09/17 12:46:49;;;;;;;5.70;1.50;;;12.40;92.40;;;;;;5058998;28;20515;-65
2022/09/17 12:49:38;;;;;;;5.73;1.63;;;12.20;94.70;;;;;;5058788;28;20631;-64
2022/09/17 12:52:08;;;;;;;5.60;2.00;;;;;;;;;;5067813;28;20471;-64
2022/09/17 12:54:45;;;;;;;16.80;2.73;;;;;;;;;;5066517;28;20471;-65
2022/09/17 12:57:19;;;;;;;6.20;1.43;;;;;;;;;;5066124;28;20424;-64
2022/09/17 12:59:49;;;;;;;5.00;1.40;;;;;;;;;;5058176;28;20923;-64
2022/09/17 13:02:18;;;;;;;6.20;1.50;;;;;;;;;;5058846;28;20432;-63
2022/09/17 13:04:58;;;;;;;7.03;1.40;;;;;;;;;;5057904;28;20464;-66
2022/09/17 13:07:34;;;;;;;5.97;1.90;;;;;;;;;;5057007;28;20190;-66
2022/09/17 13:10:14;;;;;;;2.60;1.27;;;;;;;;;;5057296;28;20208;-64
2022/09/17 13:12:43;;;;;;;3.78;1.25;;;;;;;;;;5057590;28;20464;-65